Time;durP1;ratioP1;P1;durP2;ratioP2;P2;SDS_P1;SDS_P2;PMS_P1;PMS_P2;Temp;Humidity;BMP_temperature;BMP_pressure;BME280_temperature;BME280_humidity;BME280_pressure;Samples;Min_cycle;Max_cycle;Signal;HPM_P1;HPM_P2
2021/06/27 00:01:24;;;;;;;46.20;25.65;;;15.40;99.90;;;;;;5003431;28;20042;-67
2021/06/27 00:03:51;;;;;;;39.50;24.60;;;15.40;99.90;;;;;;5004468;28;20057;-67
2021/06/27 00:06:18;;;;;;;44.05;23.40;;;15.40;99.90;;;;;;5004008;28;20069;-66
2021/06/27 00:08:44;;;;;;;43.88;25.40;;;15.30;99.90;;;;;;4995858;28;20042;-67
2021/06/27 00:11:11;;;;;;;36.63;23.45;;;15.30;99.90;;;;;;5003718;28;20050;-67
2021/06/27 00:13:40;;;;;;;46.38;25.42;;;15.30;99.90;;;;;;5003752;28;20098;-66
2021/06/27 00:16:07;;;;;;;49.42;24.40;;;15.30;99.90;;;;;;5003350;28;20520;-67
2021/06/27 00:18:33;;;;;;;44.13;25.48;;;15.20;99.90;;;;;;4998420;28;20034;-67
2021/06/27 00:21:02;;;;;;;44.72;24.48;;;15.20;99.90;;;;;;5000819;28;20470;-67
2021/06/27 00:23:30;;;;;;;41.25;23.88;;;15.20;99.90;;;;;;5003824;28;20042;-67
2021/06/27 00:25:58;;;;;;;48.35;24.38;;;15.20;99.90;;;;;;4996367;28;20050;-67
2021/06/27 00:28:23;;;;;;;41.55;25.05;;;15.20;99.90;;;;;;4994771;28;20043;-67
2021/06/27 00:30:54;;;;;;;42.97;24.85;;;15.10;99.90;;;;;;4991741;28;20042;-67
2021/06/27 00:33:21;;;;;;;47.05;25.80;;;15.10;99.90;;;;;;5003656;28;20058;-67
2021/06/27 00:35:47;;;;;;;43.90;23.95;;;15.10;99.90;;;;;;5002421;28;20484;-67
2021/06/27 00:38:14;;;;;;;44.80;25.10;;;15.00;99.90;;;;;;4999964;28;20070;-67
2021/06/27 00:40:40;;;;;;;45.33;25.83;;;15.00;99.90;;;;;;5003389;28;20137;-67
2021/06/27 00:43:07;;;;;;;48.85;25.25;;;15.00;99.90;;;;;;5001431;28;20049;-67
2021/06/27 00:45:35;;;;;;;39.40;22.73;;;15.00;99.90;;;;;;4991810;28;21056;-67
2021/06/27 00:48:03;;;;;;;40.47;22.33;;;15.00;99.90;;;;;;5000835;28;20075;-67
2021/06/27 00:50:42;;;;;;;42.85;25.45;;;14.90;99.90;;;;;;5003494;28;20050;-67
2021/06/27 00:53:08;;;;;;;49.03;23.75;;;14.90;99.90;;;;;;5003778;28;20081;-67
2021/06/27 00:55:35;;;;;;;46.20;25.05;;;14.90;99.90;;;;;;5003438;28;20042;-67
2021/06/27 00:58:01;;;;;;;45.83;27.25;;;14.80;99.90;;;;;;4995873;28;20065;-67
2021/06/27 01:00:32;;;;;;;46.78;27.15;;;14.80;99.90;;;;;;5002993;28;20050;-67
2021/06/27 01:02:59;;;;;;;52.22;26.85;;;14.80;99.90;;;;;;5003496;28;20060;-66
2021/06/27 01:05:28;;;;;;;50.65;26.17;;;14.80;99.90;;;;;;5002794;28;20053;-67
2021/06/27 01:07:55;;;;;;;53.90;25.52;;;14.80;99.90;;;;;;5002938;28;20039;-67
2021/06/27 01:10:22;;;;;;;48.15;25.42;;;14.70;99.90;;;;;;5002110;28;20097;-67
2021/06/27 01:12:48;;;;;;;45.05;24.63;;;14.70;99.90;;;;;;5003347;28;20074;-67
2021/06/27 01:15:15;;;;;;;44.03;24.77;;;14.70;99.90;;;;;;5002521;28;20057;-67
2021/06/27 01:17:44;;;;;;;48.90;26.02;;;14.60;99.90;;;;;;4997393;28;20042;-68
2021/06/27 01:20:13;;;;;;;46.13;25.25;;;14.60;99.90;;;;;;5002372;28;20054;-67
2021/06/27 01:22:39;;;;;;;53.33;25.23;;;14.60;99.90;;;;;;5004148;28;20043;-67
2021/06/27 01:25:08;;;;;;;49.70;25.58;;;14.70;99.90;;;;;;5002868;28;20092;-67
2021/06/27 01:27:34;;;;;;;47.22;24.92;;;14.60;99.90;;;;;;4991863;28;20039;-68
2021/06/27 01:30:00;;;;;;;56.70;27.35;;;14.50;99.90;;;;;;5002719;28;20125;-66
2021/06/27 01:32:26;;;;;;;47.97;26.42;;;14.50;99.90;;;;;;5002779;28;20121;-67
2021/06/27 01:34:52;;;;;;;49.10;26.90;;;14.60;99.90;;;;;;5001813;28;20562;-66
2021/06/27 01:37:18;;;;;;;57.70;28.00;;;14.50;99.90;;;;;;4993890;28;20077;-66
2021/06/27 01:39:44;;;;;;;56.10;27.15;;;14.50;99.90;;;;;;5001352;28;20042;-68
2021/06/27 01:42:09;;;;;;;61.33;29.02;;;14.40;99.90;;;;;;5003360;28;20055;-66
2021/06/27 01:44:35;;;;;;;56.90;28.23;;;14.30;99.90;;;;;;5001875;28;20046;-67
2021/06/27 01:47:01;;;;;;;57.60;27.35;;;14.30;99.90;;;;;;5003263;28;20046;-67
2021/06/27 01:49:28;;;;;;;66.30;33.08;;;14.30;99.90;;;;;;5002794;28;20054;-67
2021/06/27 01:51:54;;;;;;;71.35;34.05;;;14.30;99.90;;;;;;5002980;28;20052;-67
2021/06/27 01:54:20;;;;;;;67.22;34.22;;;14.30;99.90;;;;;;5005302;28;20084;-67
2021/06/27 01:56:46;;;;;;;83.20;40.83;;;14.30;99.90;;;;;;5005915;28;20065;-67
2021/06/27 01:59:13;;;;;;;75.25;36.58;;;14.30;99.90;;;;;;5006189;28;20048;-67
2021/06/27 02:01:40;;;;;;;75.65;38.50;;;14.20;99.90;;;;;;5006097;28;20094;-67
2021/06/27 02:04:08;;;;;;;72.07;35.55;;;14.20;99.90;;;;;;5004940;28;20085;-67
2021/06/27 02:06:41;;;;;;;75.82;35.28;;;14.10;99.90;;;;;;5003163;28;20419;-67
2021/06/27 02:09:10;;;;;;;73.75;33.67;;;14.10;99.90;;;;;;5005187;28;20073;-68
2021/06/27 02:11:36;;;;;;;72.93;32.20;;;14.10;99.90;;;;;;5006656;28;20045;-67
2021/06/27 02:14:03;;;;;;;75.45;34.30;;;14.00;99.90;;;;;;5003458;28;20407;-68
2021/06/27 02:16:30;;;;;;;66.93;31.13;;;14.00;99.90;;;;;;5004235;28;20046;-68
2021/06/27 02:18:57;;;;;;;75.50;33.25;;;14.00;99.90;;;;;;5001436;28;20055;-68
2021/06/27 02:21:33;;;;;;;81.20;34.80;;;14.00;99.90;;;;;;5005751;28;20049;-67
2021/06/27 02:24:00;;;;;;;83.05;32.90;;;14.00;99.90;;;;;;5006445;28;20309;-68
2021/06/27 02:26:27;;;;;;;82.35;34.03;;;14.00;99.90;;;;;;5006044;28;20045;-67
2021/06/27 02:28:54;;;;;;;89.22;35.13;;;14.10;99.90;;;;;;5005829;28;20050;-68
2021/06/27 02:31:20;;;;;;;84.32;34.97;;;14.00;99.90;;;;;;5005671;28;20054;-67
2021/06/27 02:33:47;;;;;;;86.70;35.72;;;14.00;99.90;;;;;;5005709;28;20042;-67
2021/06/27 02:36:13;;;;;;;88.40;36.33;;;14.00;99.90;;;;;;5005851;28;20038;-67
2021/06/27 02:38:39;;;;;;;83.55;35.22;;;13.90;99.90;;;;;;5004657;28;20053;-67
2021/06/27 02:41:07;;;;;;;101.97;36.53;;;13.90;99.90;;;;;;5005564;28;20049;-68
2021/06/27 02:43:37;;;;;;;96.00;36.05;;;13.90;99.90;;;;;;5005488;28;20053;-67
2021/06/27 02:46:03;;;;;;;104.05;36.95;;;13.90;99.90;;;;;;5005149;28;20046;-67
2021/06/27 02:48:47;;;;;;;87.60;34.85;;;13.80;99.90;;;;;;5004258;28;20050;-68
2021/06/27 02:51:13;;;;;;;95.63;35.28;;;13.80;99.90;;;;;;5005670;28;20571;-68
2021/06/27 02:53:39;;;;;;;104.95;36.13;;;13.80;99.90;;;;;;5004956;28;20252;-67
2021/06/27 02:56:26;;;;;;;102.43;38.35;;;13.70;99.90;;;;;;5005125;28;20097;-68
2021/06/27 02:58:53;;;;;;;98.45;35.63;;;13.80;99.90;;;;;;5005588;28;20053;-68
2021/06/27 03:01:19;;;;;;;113.38;37.15;;;13.70;99.90;;;;;;4991932;28;20073;-68
2021/06/27 03:03:50;;;;;;;112.57;37.40;;;13.80;99.90;;;;;;5005046;28;20065;-68
2021/06/27 03:06:17;;;;;;;103.40;36.28;;;13.80;99.90;;;;;;5005215;28;20073;-68
2021/06/27 03:08:44;;;;;;;129.02;42.55;;;13.80;99.90;;;;;;5004756;28;20046;-68
2021/06/27 03:11:10;;;;;;;121.28;39.13;;;13.70;99.90;;;;;;5005043;28;20050;-68
2021/06/27 03:13:39;;;;;;;115.57;40.63;;;13.70;99.90;;;;;;5005635;28;20333;-68
2021/06/27 03:16:07;;;;;;;112.45;38.22;;;13.70;99.90;;;;;;5004004;28;20054;-68
2021/06/27 03:18:34;;;;;;;122.15;40.95;;;13.80;99.90;;;;;;5002037;28;20057;-68
2021/06/27 03:21:01;;;;;;;120.97;40.05;;;13.70;99.90;;;;;;4997052;28;20051;-68
2021/06/27 03:23:28;;;;;;;;;;;13.80;99.90;;;;;;5005167;28;20054;-68
2021/06/27 03:25:55;;;;;;;108.50;36.65;;;13.80;99.90;;;;;;5003081;28;19980;-68
2021/06/27 03:28:21;;;;;;;124.47;38.53;;;13.80;99.90;;;;;;5004385;28;20046;-68
2021/06/27 03:30:48;;;;;;;108.00;38.53;;;13.70;99.90;;;;;;4999233;28;20042;-68
2021/06/27 03:33:14;;;;;;;112.30;38.97;;;13.70;99.90;;;;;;5004620;28;20038;-68
2021/06/27 03:35:40;;;;;;;110.72;39.67;;;13.70;99.90;;;;;;4998327;28;20045;-68
2021/06/27 03:38:19;;;;;;;100.97;36.20;;;13.80;99.90;;;;;;5004636;28;20046;-67
2021/06/27 03:40:45;;;;;;;107.65;36.28;;;13.80;99.90;;;;;;5004965;28;20105;-67
2021/06/27 03:43:11;;;;;;;92.40;35.88;;;13.80;99.90;;;;;;5002821;28;20133;-68
2021/06/27 03:45:38;;;;;;;93.47;34.67;;;13.90;99.90;;;;;;4998764;28;20042;-67
2021/06/27 03:48:08;;;;;;;99.63;35.03;;;13.80;99.90;;;;;;5003981;28;20399;-68
2021/06/27 03:50:36;;;;;;;94.72;35.08;;;13.90;99.90;;;;;;5004115;28;20043;-68
2021/06/27 03:53:03;;;;;;;85.90;33.88;;;13.90;99.90;;;;;;5003310;28;20049;-68
2021/06/27 03:55:29;;;;;;;84.97;35.05;;;13.90;99.90;;;;;;5003879;28;20043;-67
2021/06/27 03:57:55;;;;;;;70.35;29.02;;;13.90;99.90;;;;;;5002345;28;20114;-67
2021/06/27 04:00:22;;;;;;;80.55;30.88;;;13.90;99.90;;;;;;5002084;28;20034;-67
2021/06/27 04:02:48;;;;;;;80.82;32.45;;;14.00;99.90;;;;;;5004165;28;20093;-68
2021/06/27 04:05:14;;;;;;;63.90;28.50;;;14.00;99.90;;;;;;5004573;28;20054;-68
2021/06/27 04:07:42;;;;;;;73.60;29.85;;;14.00;99.90;;;;;;5004367;28;20260;-68
2021/06/27 04:10:09;;;;;;;73.10;29.20;;;14.10;99.90;;;;;;5004141;28;20046;-68
2021/06/27 04:12:36;;;;;;;64.40;28.63;;;14.10;99.90;;;;;;5003087;28;20046;-68
2021/06/27 04:15:04;;;;;;;61.95;29.75;;;14.20;99.90;;;;;;5002945;28;20050;-68
2021/06/27 04:17:30;;;;;;;65.18;28.75;;;14.20;99.90;;;;;;4996056;28;20069;-68
2021/06/27 04:19:57;;;;;;;47.70;24.77;;;14.40;99.90;;;;;;5000579;28;20081;-68
2021/06/27 04:22:23;;;;;;;51.88;26.20;;;14.40;99.90;;;;;;4998535;28;20051;-68
2021/06/27 04:24:49;;;;;;;55.38;28.13;;;14.40;99.90;;;;;;4998830;28;20053;-67
2021/06/27 04:27:15;;;;;;;59.85;27.17;;;14.50;99.90;;;;;;5003262;28;20046;-70
2021/06/27 04:29:41;;;;;;;52.22;25.50;;;14.50;99.90;;;;;;5003346;28;20046;-68
2021/06/27 04:32:07;;;;;;;50.15;25.52;;;14.60;99.90;;;;;;5003712;28;20057;-68
2021/06/27 04:34:33;;;;;;;44.40;23.33;;;14.70;99.90;;;;;;5000112;28;20069;-66
2021/06/27 04:36:59;;;;;;;51.55;25.20;;;14.70;99.90;;;;;;5003693;28;20495;-67
2021/06/27 04:39:26;;;;;;;47.40;25.58;;;14.70;99.90;;;;;;4997182;28;20073;-68
2021/06/27 04:41:52;;;;;;;48.08;23.60;;;14.80;99.90;;;;;;4997095;28;20038;-67
2021/06/27 04:44:19;;;;;;;43.90;25.45;;;14.90;99.90;;;;;;4997581;28;20050;-67
2021/06/27 04:46:45;;;;;;;42.08;24.67;;;14.90;99.90;;;;;;5003677;28;20042;-68
2021/06/27 04:49:13;;;;;;;41.75;23.45;;;15.00;99.90;;;;;;4999233;28;20057;-68
2021/06/27 04:51:39;;;;;;;38.95;22.27;;;15.10;99.90;;;;;;4990894;28;20049;-67
2021/06/27 04:54:05;;;;;;;34.97;21.55;;;15.20;99.90;;;;;;5002412;28;20046;-68
2021/06/27 04:56:31;;;;;;;36.00;22.02;;;15.20;99.90;;;;;;5003002;28;20049;-68
2021/06/27 04:58:57;;;;;;;34.40;20.73;;;15.30;99.90;;;;;;5003618;28;20664;-68
2021/06/27 05:01:23;;;;;;;32.92;18.75;;;15.30;99.90;;;;;;5003069;28;20158;-68
2021/06/27 05:03:48;;;;;;;36.70;19.83;;;15.40;99.90;;;;;;4992963;28;20098;-68
2021/06/27 05:06:14;;;;;;;34.40;20.55;;;15.40;99.90;;;;;;5003974;28;20054;-68
2021/06/27 05:08:40;;;;;;;31.55;18.60;;;15.50;99.90;;;;;;4988840;28;20187;-67
2021/06/27 05:11:05;;;;;;;30.75;19.52;;;15.60;99.90;;;;;;5004291;28;20050;-68
2021/06/27 05:13:31;;;;;;;31.45;19.85;;;15.60;99.90;;;;;;5003191;28;20057;-68
2021/06/27 05:15:57;;;;;;;31.52;17.95;;;15.70;99.90;;;;;;5002669;28;20053;-67
2021/06/27 05:18:23;;;;;;;25.77;17.42;;;15.80;99.90;;;;;;4994209;28;20046;-67
2021/06/27 05:20:49;;;;;;;23.95;15.90;;;15.80;99.90;;;;;;5003131;28;20062;-68
2021/06/27 05:23:16;;;;;;;28.85;19.30;;;15.90;99.90;;;;;;4994109;28;20065;-67
2021/06/27 05:25:42;;;;;;;27.30;18.67;;;16.00;99.90;;;;;;4990280;28;20051;-67
2021/06/27 05:28:08;;;;;;;32.15;17.27;;;16.10;99.90;;;;;;4991958;28;20066;-67
2021/06/27 05:30:34;;;;;;;23.23;17.00;;;16.20;99.90;;;;;;4993720;28;20113;-68
2021/06/27 05:33:01;;;;;;;25.00;15.93;;;16.20;99.90;;;;;;4999906;28;20073;-67
2021/06/27 05:35:27;;;;;;;23.93;14.40;;;16.30;99.90;;;;;;4997011;28;20046;-67
2021/06/27 05:37:53;;;;;;;17.70;12.70;;;16.40;99.90;;;;;;4996627;28;20043;-68
2021/06/27 05:40:19;;;;;;;23.92;13.40;;;16.50;99.90;;;;;;4998833;28;20034;-67
2021/06/27 05:42:46;;;;;;;21.73;14.70;;;16.50;99.90;;;;;;4994067;28;20061;-68
2021/06/27 05:45:12;;;;;;;24.63;16.02;;;16.60;99.90;;;;;;4988162;28;20047;-67
2021/06/27 05:47:38;;;;;;;23.67;14.50;;;16.70;99.90;;;;;;4996998;28;20051;-67
2021/06/27 05:50:05;;;;;;;23.13;14.65;;;16.80;99.90;;;;;;4997637;28;20525;-66
2021/06/27 05:52:30;;;;;;;18.13;14.27;;;16.90;99.90;;;;;;4997046;28;20049;-67
2021/06/27 05:54:57;;;;;;;15.18;10.38;;;16.90;99.90;;;;;;4992250;28;20046;-67
2021/06/27 05:57:23;;;;;;;21.65;14.38;;;16.90;99.90;;;;;;5000650;28;20570;-68
2021/06/27 05:59:49;;;;;;;19.05;13.82;;;17.00;99.90;;;;;;4999409;28;20070;-67
2021/06/27 06:02:15;;;;;;;21.35;14.23;;;17.20;99.90;;;;;;5002398;28;20117;-67
2021/06/27 06:04:41;;;;;;;19.45;13.18;;;17.50;99.90;;;;;;5001569;28;21116;-67
2021/06/27 06:07:06;;;;;;;18.13;12.85;;;17.50;99.90;;;;;;5003530;28;20080;-67
2021/06/27 06:09:32;;;;;;;18.65;13.43;;;17.60;99.90;;;;;;4996124;28;20047;-67
2021/06/27 06:11:58;;;;;;;17.77;12.15;;;17.70;99.90;;;;;;4989063;28;20042;-68
2021/06/27 06:14:24;;;;;;;15.77;12.05;;;17.70;99.90;;;;;;4991536;28;20122;-67
2021/06/27 06:16:51;;;;;;;16.60;12.23;;;17.60;99.90;;;;;;4988175;28;20047;-68
2021/06/27 06:19:20;;;;;;;16.85;12.52;;;17.40;99.90;;;;;;4994062;28;20097;-68
2021/06/27 06:21:47;;;;;;;12.90;10.68;;;17.60;99.90;;;;;;5003038;28;20046;-68
2021/06/27 06:24:13;;;;;;;17.50;12.00;;;17.60;99.90;;;;;;4990224;28;20106;-67
2021/06/27 06:26:39;;;;;;;16.77;12.13;;;17.90;99.90;;;;;;4998916;28;20046;-67
2021/06/27 06:29:05;;;;;;;18.58;11.80;;;18.10;99.90;;;;;;4994967;28;20047;-68
2021/06/27 06:31:31;;;;;;;16.73;12.50;;;18.20;99.90;;;;;;4992733;28;20042;-68
2021/06/27 06:33:57;;;;;;;16.95;12.23;;;18.30;99.90;;;;;;4995874;28;20039;-68
2021/06/27 06:36:22;;;;;;;17.23;12.30;;;18.40;99.90;;;;;;4996858;28;20039;-68
2021/06/27 06:38:48;;;;;;;16.38;11.88;;;18.50;99.90;;;;;;4996326;28;20074;-68
2021/06/27 06:41:17;;;;;;;14.88;11.35;;;18.50;99.90;;;;;;5001150;28;20050;-67
2021/06/27 06:43:42;;;;;;;18.65;11.73;;;18.50;99.90;;;;;;5002955;28;20550;-67
2021/06/27 06:46:08;;;;;;;13.88;8.88;;;18.40;99.90;;;;;;4991621;28;20053;-67
2021/06/27 06:48:34;;;;;;;17.58;8.88;;;18.40;99.90;;;;;;4999315;28;20050;-67
2021/06/27 06:50:59;;;;;;;15.95;11.32;;;18.20;99.90;;;;;;5001218;28;20043;-67
2021/06/27 06:53:26;;;;;;;15.02;11.93;;;18.30;99.90;;;;;;4996182;28;20272;-67
2021/06/27 06:55:53;;;;;;;23.67;11.60;;;18.50;99.90;;;;;;5003926;28;20050;-67
2021/06/27 06:58:20;;;;;;;16.73;11.80;;;18.70;99.90;;;;;;5001006;28;20066;-67
2021/06/27 07:00:46;;;;;;;16.75;12.50;;;18.70;99.90;;;;;;4998487;28;20512;-67
2021/06/27 07:03:12;;;;;;;19.17;11.02;;;18.80;99.90;;;;;;4996218;28;20062;-67
2021/06/27 07:05:38;;;;;;;18.42;12.63;;;19.10;99.90;;;;;;4996218;28;20046;-67
2021/06/27 07:08:04;;;;;;;14.52;11.35;;;19.10;99.90;;;;;;4997091;28;20042;-67
2021/06/27 07:10:29;;;;;;;19.30;13.45;;;18.90;99.90;;;;;;4995305;28;20074;-68
2021/06/27 07:12:55;;;;;;;18.10;13.38;;;18.80;99.90;;;;;;4987802;28;20054;-67
2021/06/27 07:15:22;;;;;;;18.85;12.35;;;19.00;99.90;;;;;;4992513;28;20038;-67
2021/06/27 07:17:48;;;;;;;18.17;12.77;;;18.80;99.90;;;;;;4996234;28;20043;-67
2021/06/27 07:20:14;;;;;;;16.48;12.48;;;19.00;99.90;;;;;;4991388;28;20109;-67
2021/06/27 07:22:41;;;;;;;18.75;13.25;;;19.10;99.90;;;;;;4986182;28;20031;-67
2021/06/27 07:25:07;;;;;;;15.07;12.23;;;19.30;99.90;;;;;;4993017;28;20144;-68
2021/06/27 07:27:33;;;;;;;16.75;11.95;;;19.00;99.90;;;;;;4991550;28;20130;-68
2021/06/27 07:29:59;;;;;;;18.75;12.45;;;19.20;99.90;;;;;;4994938;28;20043;-68
2021/06/27 07:32:25;;;;;;;18.48;13.55;;;18.80;99.90;;;;;;5000002;28;20100;-68
2021/06/27 07:34:51;;;;;;;20.13;13.88;;;18.70;99.90;;;;;;4988721;28;20392;-67
2021/06/27 07:37:16;;;;;;;19.08;13.82;;;18.90;99.90;;;;;;4990303;28;20054;-67
2021/06/27 07:39:42;;;;;;;14.98;12.15;;;18.90;99.90;;;;;;4993116;28;20414;-68
2021/06/27 07:42:08;;;;;;;16.42;10.90;;;19.10;99.90;;;;;;5004452;28;20054;-68
2021/06/27 07:44:34;;;;;;;15.65;11.52;;;19.10;99.90;;;;;;5004006;28;20125;-68
2021/06/27 07:47:00;;;;;;;14.13;10.93;;;19.10;99.90;;;;;;5004268;28;20077;-68
2021/06/27 07:49:26;;;;;;;13.82;10.88;;;19.10;99.90;;;;;;5004508;28;20053;-68
2021/06/27 07:51:51;;;;;;;15.65;12.35;;;19.40;99.90;;;;;;4993074;28;20049;-68
2021/06/27 07:54:17;;;;;;;16.83;12.15;;;19.40;99.90;;;;;;4986946;28;20144;-68
2021/06/27 07:56:43;;;;;;;16.75;10.90;;;19.50;99.90;;;;;;4985954;28;20053;-68
2021/06/27 07:59:09;;;;;;;16.67;12.52;;;19.20;99.90;;;;;;4987262;28;20051;-68
2021/06/27 08:01:35;;;;;;;13.60;12.10;;;19.30;99.90;;;;;;4986961;28;20043;-68
2021/06/27 08:04:01;;;;;;;14.63;10.52;;;19.40;99.90;;;;;;4988532;28;20043;-68
2021/06/27 08:06:27;;;;;;;12.00;9.88;;;19.60;99.90;;;;;;4998972;28;20049;-67
2021/06/27 08:08:53;;;;;;;15.18;11.43;;;19.80;99.90;;;;;;4986313;28;20034;-68
2021/06/27 08:11:18;;;;;;;13.52;10.70;;;20.20;99.90;;;;;;4993720;28;20061;-68
2021/06/27 08:13:44;;;;;;;11.40;8.73;;;20.20;99.90;;;;;;4993491;28;20070;-67
2021/06/27 08:16:10;;;;;;;14.75;10.73;;;20.20;99.90;;;;;;4992252;28;20040;-68
2021/06/27 08:18:36;;;;;;;12.75;10.35;;;20.10;99.90;;;;;;4992524;28;20050;-68
2021/06/27 08:21:02;;;;;;;16.23;12.27;;;19.90;99.90;;;;;;4985765;28;20042;-68
2021/06/27 08:23:28;;;;;;;12.77;10.23;;;19.90;99.90;;;;;;4990214;28;20084;-68
2021/06/27 08:25:54;;;;;;;13.55;9.80;;;20.40;99.90;;;;;;4988511;28;20054;-69
2021/06/27 08:28:20;;;;;;;11.65;8.50;;;20.40;99.90;;;;;;4991909;28;20046;-68
2021/06/27 08:30:45;;;;;;;13.38;10.82;;;20.20;99.90;;;;;;4986104;28;20085;-69
2021/06/27 08:33:11;;;;;;;15.00;11.07;;;20.10;99.90;;;;;;4988942;28;20053;-69
2021/06/27 08:35:37;;;;;;;12.48;10.45;;;20.30;99.90;;;;;;4998660;28;20034;-69
2021/06/27 08:38:03;;;;;;;12.50;10.05;;;20.30;99.90;;;;;;4994250;28;20038;-69
2021/06/27 08:40:29;;;;;;;15.20;10.82;;;20.50;99.90;;;;;;4989193;28;20037;-69
2021/06/27 08:42:55;;;;;;;13.18;10.27;;;20.30;99.90;;;;;;4998398;28;20098;-69
2021/06/27 08:45:23;;;;;;;16.38;11.73;;;20.40;99.90;;;;;;4997268;28;20450;-70
2021/06/27 08:47:52;;;;;;;14.32;10.45;;;20.50;99.90;;;;;;4998344;28;20411;-69
2021/06/27 08:50:19;;;;;;;14.25;9.88;;;20.70;99.90;;;;;;4986748;28;20062;-69
2021/06/27 08:52:45;;;;;;;13.70;9.88;;;20.90;99.90;;;;;;4993878;28;20050;-69
2021/06/27 08:55:14;;;;;;;12.00;9.48;;;20.90;99.90;;;;;;5002736;28;20046;-69
2021/06/27 08:57:42;;;;;;;11.00;9.25;;;21.00;99.90;;;;;;5003570;28;20062;-69
2021/06/27 09:00:09;;;;;;;12.27;9.18;;;20.90;99.90;;;;;;5002974;28;20048;-68
2021/06/27 09:02:35;;;;;;;12.20;9.60;;;21.20;99.90;;;;;;4993382;28;20447;-69
2021/06/27 09:05:01;;;;;;;15.15;10.57;;;21.30;99.90;;;;;;5003895;28;20073;-68
2021/06/27 09:07:35;;;;;;;12.73;9.35;;;21.20;99.90;;;;;;5003507;28;20133;-68
2021/06/27 09:10:04;;;;;;;13.20;9.68;;;21.10;99.90;;;;;;5002322;28;20143;-69
2021/06/27 09:12:55;;;;;;;11.32;9.30;;;21.10;99.90;;;;;;4992870;28;20050;-68
2021/06/27 09:15:33;;;;;;;12.25;8.65;;;21.10;99.90;;;;;;5000555;28;20042;-69
2021/06/27 09:17:58;;;;;;;11.75;8.88;;;21.50;99.90;;;;;;4995425;28;20512;-69
2021/06/27 09:20:25;;;;;;;11.85;9.50;;;21.70;99.90;;;;;;5003127;28;20058;-68
2021/06/27 09:22:52;;;;;;;12.33;9.77;;;21.60;99.90;;;;;;4994852;28;20062;-69
2021/06/27 09:25:23;;;;;;;10.98;9.57;;;21.40;99.90;;;;;;5002935;28;20455;-69
2021/06/27 09:28:05;;;;;;;10.60;9.50;;;21.30;99.90;;;;;;5003880;28;20096;-69
2021/06/27 09:30:37;;;;;;;11.82;8.52;;;21.40;99.90;;;;;;4999751;28;20050;-68
2021/06/27 09:33:05;;;;;;;12.80;9.27;;;21.50;99.90;;;;;;4993077;28;20123;-68
2021/06/27 09:35:52;;;;;;;15.60;9.60;;;21.50;99.90;;;;;;4992192;28;20035;-69
2021/06/27 09:38:44;;;;;;;14.55;10.02;;;21.90;99.90;;;;;;4990204;28;20053;-69
2021/06/27 09:41:23;;;;;;;12.07;8.98;;;21.70;99.90;;;;;;5002768;28;20073;-69
2021/06/27 09:43:53;;;;;;;13.45;9.38;;;21.70;99.90;;;;;;5002599;28;20458;-69
2021/06/27 09:46:36;;;;;;;12.50;9.30;;;21.60;99.90;;;;;;5002772;28;20042;-69
2021/06/27 09:49:09;;;;;;;9.80;8.60;;;22.00;99.90;;;;;;5003285;28;20129;-69
2021/06/27 09:51:36;;;;;;;9.55;8.13;;;21.90;99.90;;;;;;5002696;28;20062;-69
2021/06/27 09:54:10;;;;;;;9.48;8.18;;;21.70;99.90;;;;;;5003083;28;20429;-69
2021/06/27 09:56:38;;;;;;;11.10;7.65;;;21.90;99.90;;;;;;5002743;28;20537;-69
2021/06/27 09:59:07;;;;;;;12.05;8.80;;;22.20;99.90;;;;;;5002737;28;20046;-69
2021/06/27 10:01:34;;;;;;;11.50;8.85;;;22.20;99.90;;;;;;5002859;28;20042;-69
2021/06/27 10:04:02;;;;;;;8.73;6.85;;;22.00;99.90;;;;;;5002979;28;20054;-69
2021/06/27 10:06:33;;;;;;;10.73;8.38;;;21.80;99.90;;;;;;5002283;28;20082;-68
2021/06/27 10:09:11;;;;;;;9.77;8.00;;;22.10;99.90;;;;;;5002851;28;20089;-69
2021/06/27 10:11:38;;;;;;;9.70;8.55;;;22.40;99.90;;;;;;5002878;28;20041;-68
2021/06/27 10:14:10;;;;;;;11.27;7.93;;;22.30;99.90;;;;;;5003340;28;20054;-68
2021/06/27 10:16:36;;;;;;;8.35;6.72;;;22.60;99.90;;;;;;5006143;28;20077;-68
2021/06/27 10:19:03;;;;;;;9.50;8.10;;;22.60;99.90;;;;;;5006207;28;20042;-68
2021/06/27 10:21:31;;;;;;;10.15;8.02;;;22.30;99.90;;;;;;5005994;28;20042;-69
2021/06/27 10:23:57;;;;;;;;;;;22.40;99.90;;;;;;5006721;28;20042;-68
2021/06/27 10:26:25;;;;;;;10.15;8.05;;;22.60;99.90;;;;;;5006134;28;19918;-68
2021/06/27 10:28:52;;;;;;;10.70;9.13;;;22.50;99.90;;;;;;5006461;28;20046;-69
2021/06/27 10:31:22;;;;;;;9.20;7.88;;;22.70;99.90;;;;;;5005973;28;20085;-69
2021/06/27 10:33:49;;;;;;;11.10;8.10;;;22.60;99.90;;;;;;5006474;28;20058;-69
2021/06/27 10:36:39;;;;;;;10.38;8.20;;;22.50;99.90;;;;;;5005959;28;20046;-69
2021/06/27 10:39:10;;;;;;;9.63;7.43;;;22.70;99.90;;;;;;4999894;28;20058;-69
2021/06/27 10:41:56;;;;;;;9.60;6.57;;;22.50;99.90;;;;;;5006441;28;20045;-69
2021/06/27 10:44:24;;;;;;;9.65;7.75;;;22.40;99.90;;;;;;4999877;28;20525;-69
2021/06/27 10:46:53;;;;;;;16.33;9.73;;;22.50;99.90;;;;;;5006290;28;20042;-69
2021/06/27 10:49:31;;;;;;;8.63;7.60;;;22.60;99.90;;;;;;5005207;28;20506;-69
2021/06/27 10:52:00;;;;;;;;;;;22.50;99.90;;;;;;4986949;28;20044;-69
2021/06/27 10:54:30;;;;;;;9.98;7.50;;;22.40;99.90;;;;;;5005239;28;20435;-69
2021/06/27 10:57:09;;;;;;;9.05;7.88;;;22.40;99.90;;;;;;4992131;28;20529;-69
2021/06/27 10:59:38;;;;;;;9.13;8.15;;;22.40;99.90;;;;;;4999010;28;20065;-69
2021/06/27 11:02:37;;;;;;;9.38;7.82;;;22.10;99.90;;;;;;4992524;28;20446;-69
2021/06/27 11:05:26;;;;;;;11.52;8.98;;;22.60;99.90;;;;;;5002900;28;20061;-68
2021/06/27 11:07:51;;;;;;;;;;;22.50;99.90;;;;;;5002269;28;20114;-68
2021/06/27 11:10:20;;;;;;;13.85;9.48;;;22.60;99.90;;;;;;5005735;28;19964;-69
2021/06/27 11:12:58;;;;;;;11.30;10.10;;;22.80;99.90;;;;;;5005544;28;20038;-69
2021/06/27 11:15:26;;;;;;;11.50;8.60;;;23.00;99.90;;;;;;5004217;28;20042;-69
2021/06/27 11:17:59;;;;;;;9.10;7.22;;;23.10;99.90;;;;;;5005033;28;20042;-69
2021/06/27 11:20:31;;;;;;;11.05;8.73;;;22.90;99.90;;;;;;5005259;28;20042;-69
2021/06/27 11:22:59;;;;;;;9.23;8.32;;;22.80;99.90;;;;;;5005097;28;20105;-68
2021/06/27 11:25:46;;;;;;;11.02;7.63;;;23.00;99.90;;;;;;5004683;28;20039;-69
2021/06/27 11:28:18;;;;;;;9.70;8.10;;;23.00;99.90;;;;;;5005619;28;20106;-69
2021/06/27 11:30:54;;;;;;;9.93;8.68;;;23.10;99.90;;;;;;5000034;28;20050;-69
2021/06/27 11:33:23;;;;;;;11.55;9.80;;;23.00;99.90;;;;;;4996747;28;20042;-68
2021/06/27 11:35:58;;;;;;;12.60;7.50;;;23.40;99.90;;;;;;5001010;28;20038;-69
2021/06/27 11:38:45;;;;;;;9.40;8.43;;;23.40;99.90;;;;;;5004816;28;20046;-68
2021/06/27 11:41:14;;;;;;;8.80;7.10;;;23.40;99.90;;;;;;5004553;28;20050;-70
2021/06/27 11:43:59;;;;;;;9.88;7.40;;;23.60;99.90;;;;;;5004858;28;20062;-68
2021/06/27 11:46:38;;;;;;;9.10;7.75;;;23.90;99.90;;;;;;4998553;28;20039;-69
2021/06/27 11:49:11;;;;;;;8.10;6.50;;;23.90;99.90;;;;;;4996287;28;20065;-69
2021/06/27 11:51:45;;;;;;;9.68;7.60;;;24.40;99.90;;;;;;5004222;28;20081;-69
2021/06/27 11:54:14;;;;;;;9.15;6.88;;;24.70;99.90;;;;;;5004476;28;20058;-69
2021/06/27 11:57:02;;;;;;;8.50;6.95;;;24.40;99.90;;;;;;5000406;28;20046;-69
2021/06/27 11:59:36;;;;;;;8.45;7.60;;;24.30;99.90;;;;;;4997777;28;20050;-69
2021/06/27 12:02:06;;;;;;;9.45;6.45;;;24.40;99.90;;;;;;4992582;28;20050;-69
2021/06/27 12:04:42;;;;;;;8.70;5.93;;;25.40;99.90;;;;;;4997966;28;20073;-69
2021/06/27 12:07:26;;;;;;;8.55;7.65;;;25.70;99.90;;;;;;4998194;28;20050;-69
2021/06/27 12:09:53;;;;;;;14.70;7.55;;;24.70;99.90;;;;;;5004525;28;20050;-69
2021/06/27 12:12:51;;;;;;;6.78;6.07;;;24.60;99.90;;;;;;5003945;28;20050;-68
2021/06/27 12:15:22;;;;;;;8.27;6.45;;;25.30;99.90;;;;;;5002774;28;20337;-68
2021/06/27 12:17:55;;;;;;;7.25;6.45;;;25.00;99.90;;;;;;5004859;28;20133;-69
2021/06/27 12:20:21;;;;;;;9.35;6.88;;;24.70;99.90;;;;;;4990344;28;20073;-69
2021/06/27 12:22:54;;;;;;;7.47;5.32;;;25.40;99.90;;;;;;5004093;28;20049;-69
2021/06/27 12:25:50;;;;;;;7.22;6.43;;;26.00;99.90;;;;;;5003715;28;20051;-68
2021/06/27 12:28:27;;;;;;;6.88;6.15;;;25.60;99.90;;;;;;4995082;28;20106;-68
2021/06/27 12:30:55;;;;;;;6.55;5.95;;;25.50;99.90;;;;;;4984432;28;20038;-68
2021/06/27 12:33:28;;;;;;;5.78;5.22;;;25.00;99.90;;;;;;5004393;28;20046;-69
2021/06/27 12:36:00;;;;;;;5.70;5.18;;;24.70;99.90;;;;;;4989574;28;20075;-69
2021/06/27 12:38:27;;;;;;;7.38;5.45;;;25.40;99.90;;;;;;4996711;28;20050;-69
2021/06/27 12:40:55;;;;;;;7.07;6.22;;;25.70;99.90;;;;;;5000128;28;20557;-69